createdAt,value
2018-06-18T00:01:47.704Z,7.33
2018-06-18T00:04:17.378Z,6.90
2018-06-18T00:06:46.840Z,7.33
2018-06-18T00:09:16.236Z,6.95
2018-06-18T00:11:45.855Z,7.30
2018-06-18T00:14:15.677Z,6.80
2018-06-18T00:16:45.359Z,7.15
2018-06-18T00:19:15.476Z,6.80
2018-06-18T00:21:45.090Z,6.67
2018-06-18T00:24:14.691Z,7.15
2018-06-18T00:26:44.734Z,6.37
2018-06-18T00:29:14.284Z,6.70
2018-06-18T00:31:43.886Z,7.10
2018-06-18T00:34:17.050Z,7.15
2018-06-18T00:36:46.756Z,6.90
2018-06-18T00:39:16.189Z,6.58
2018-06-18T00:41:46.793Z,6.47
2018-06-18T00:44:16.286Z,7.17
2018-06-18T00:46:45.895Z,6.10
2018-06-18T00:49:15.946Z,6.33
2018-06-18T00:51:45.493Z,6.58
2018-06-18T00:54:14.987Z,6.90
2018-06-18T00:56:45.132Z,6.47
2018-06-18T00:59:15.155Z,6.50
2018-06-18T01:01:46.394Z,6.17
2018-06-18T01:04:15.935Z,7.05
2018-06-18T01:06:45.693Z,6.53
2018-06-18T01:09:16.328Z,6.45
2018-06-18T01:11:45.980Z,6.05
2018-06-18T01:14:15.898Z,6.55
2018-06-18T01:16:45.583Z,6.53
2018-06-18T01:19:15.186Z,6.03
2018-06-18T01:21:44.836Z,6.15
2018-06-18T01:24:27.115Z,6.45
2018-06-18T01:26:56.878Z,5.97
2018-06-18T01:29:26.363Z,6.55
2018-06-18T01:31:56.208Z,6.30
2018-06-18T01:34:27.907Z,6.42
2018-06-18T01:36:57.673Z,6.53
2018-06-18T01:39:27.213Z,6.15
2018-06-18T01:41:56.868Z,6.53
2018-06-18T01:44:26.292Z,6.83
2018-06-18T01:46:56.030Z,6.58
2018-06-18T01:49:25.727Z,6.20
2018-06-18T01:51:55.402Z,6.80
2018-06-18T01:54:25.557Z,6.25
2018-06-18T01:56:55.149Z,6.27
2018-06-18T01:59:24.823Z,6.53
2018-06-18T02:01:54.945Z,6.08
2018-06-18T02:04:24.688Z,6.83
2018-06-18T02:06:54.247Z,6.22
2018-06-18T02:09:23.771Z,6.28
2018-06-18T02:11:53.347Z,6.72
2018-06-18T02:14:22.850Z,6.92
2018-06-18T02:16:52.395Z,6.22
2018-06-18T02:19:22.177Z,6.60
2018-06-18T02:21:55.114Z,7.03
2018-06-18T02:24:24.581Z,7.00
2018-06-18T02:26:58.930Z,7.00
2018-06-18T02:29:33.363Z,6.87
2018-06-18T02:32:08.253Z,7.12
2018-06-18T02:34:42.630Z,7.05
2018-06-18T02:37:17.382Z,7.55
2018-06-18T02:39:51.925Z,7.33
2018-06-18T02:42:21.422Z,7.60
2018-06-18T02:44:51.073Z,6.80
2018-06-18T02:47:20.572Z,6.78
2018-06-18T02:49:50.142Z,7.72
2018-06-18T02:52:19.876Z,6.37
2018-06-18T02:54:49.711Z,7.10
2018-06-18T02:57:19.416Z,6.70
2018-06-18T02:59:49.106Z,7.17
2018-06-18T03:02:18.535Z,6.62
2018-06-18T03:04:48.130Z,7.08
2018-06-18T03:07:17.605Z,7.00
2018-06-18T03:09:48.087Z,7.22
2018-06-18T03:12:17.742Z,7.42
2018-06-18T03:14:51.607Z,6.42
2018-06-18T03:17:22.356Z,7.30
2018-06-18T03:20:07.848Z,7.45
2018-06-18T03:32:19.074Z,7.40
2018-06-18T03:34:48.509Z,7.17
2018-06-18T03:37:19.872Z,6.90
2018-06-18T03:39:57.554Z,7.22
2018-06-18T03:42:27.657Z,7.40
2018-06-18T03:45:02.823Z,7.05
2018-06-18T03:47:36.363Z,7.03
2018-06-18T03:50:06.502Z,6.80
2018-06-18T03:52:39.047Z,7.90
2018-06-18T03:55:13.503Z,7.60
2018-06-18T03:57:45.039Z,6.93
2018-06-18T04:00:14.886Z,7.03
2018-06-18T04:03:01.403Z,7.78
2018-06-18T04:05:37.883Z,6.47
2018-06-18T04:08:10.144Z,7.50
2018-06-18T04:10:46.114Z,7.45
2018-06-18T04:13:15.696Z,6.95
2018-06-18T04:15:45.601Z,6.72
2018-06-18T04:18:15.230Z,6.85
2018-06-18T04:20:51.133Z,7.17
2018-06-18T04:23:20.707Z,7.15
2018-06-18T04:25:50.138Z,7.30
2018-06-18T04:28:19.536Z,6.73
2018-06-18T04:30:48.953Z,7.33
2018-06-18T04:33:21.781Z,7.30
2018-06-18T04:35:51.633Z,6.97
2018-06-18T04:38:21.339Z,7.00
2018-06-18T04:40:50.952Z,7.13
2018-06-18T04:43:25.452Z,7.35
2018-06-18T04:45:59.938Z,6.83
2018-06-18T04:48:34.467Z,6.90
2018-06-18T04:51:04.264Z,6.63
2018-06-18T04:53:33.755Z,6.90
2018-06-18T04:56:03.335Z,6.63
2018-06-18T04:58:34.432Z,6.60
2018-06-18T05:01:14.422Z,6.60
2018-06-18T05:03:44.340Z,6.73
2018-06-18T05:06:15.633Z,6.73
2018-06-18T05:10:55.228Z,6.20
2018-06-18T05:13:30.723Z,6.47
2018-06-18T05:16:00.259Z,6.43
2018-06-18T05:18:29.875Z,6.67
2018-06-18T05:21:00.181Z,6.03
2018-06-18T05:23:31.174Z,5.80
2018-06-18T05:26:01.716Z,6.30
2018-06-18T05:28:31.404Z,6.57
2018-06-18T05:31:01.180Z,6.33
2018-06-18T05:33:30.662Z,6.10
2018-06-18T05:36:02.800Z,6.62
2018-06-18T05:38:34.443Z,7.13
2018-06-18T05:41:03.826Z,6.20
2018-06-18T05:43:33.464Z,6.03
2018-06-18T05:46:02.918Z,6.30
2018-06-18T05:48:32.480Z,6.17
2018-06-18T05:51:01.960Z,5.87
2018-06-18T05:53:31.528Z,5.67
2018-06-18T05:56:00.876Z,6.78
2018-06-18T05:58:30.385Z,6.28
2018-06-18T06:01:00.438Z,6.22
2018-06-18T06:03:29.936Z,5.95
2018-06-18T06:05:59.967Z,6.45
2018-06-18T06:08:29.457Z,6.25
2018-06-18T06:10:59.027Z,5.95
2018-06-18T06:13:28.843Z,6.12
2018-06-18T06:15:58.831Z,6.20
2018-06-18T06:18:31.541Z,5.53
2018-06-18T06:21:03.208Z,5.92
2018-06-18T06:23:32.935Z,6.20
2018-06-18T06:26:02.311Z,6.22
2018-06-18T06:28:31.918Z,5.80
2018-06-18T06:31:01.468Z,6.40
2018-06-18T06:33:30.934Z,6.20
2018-06-18T06:36:01.201Z,6.95
2018-06-18T06:38:30.895Z,5.70
2018-06-18T06:41:00.543Z,6.10
2018-06-18T06:43:30.280Z,5.70
2018-06-18T06:45:59.831Z,6.20
2018-06-18T06:48:29.397Z,5.58
2018-06-18T06:50:58.922Z,6.20
2018-06-18T06:53:28.446Z,6.30
2018-06-18T06:55:58.016Z,6.05
2018-06-18T06:58:27.730Z,6.03
2018-06-18T07:00:57.319Z,5.45
2018-06-18T07:03:26.896Z,5.90
2018-06-18T07:05:56.437Z,5.90
2018-06-18T07:08:26.275Z,6.97
2018-06-18T07:10:55.886Z,5.03
2018-06-18T07:13:32.816Z,6.17
2018-06-18T07:16:02.244Z,6.15
2018-06-18T07:18:35.186Z,6.05
2018-06-18T07:21:04.678Z,6.47
2018-06-18T07:23:39.415Z,6.03
2018-06-18T07:26:09.012Z,5.95
2018-06-18T07:28:39.049Z,6.00
2018-06-18T07:31:08.820Z,6.58
2018-06-18T07:33:38.413Z,5.78
2018-06-18T07:36:08.023Z,5.42
2018-06-18T07:38:37.545Z,6.28
2018-06-18T07:41:10.352Z,6.00
2018-06-18T07:43:39.958Z,6.95
2018-06-18T07:46:09.655Z,5.70
2018-06-18T07:48:39.274Z,5.65
2018-06-18T07:51:08.885Z,5.17
2018-06-18T07:53:38.591Z,6.05
2018-06-18T07:56:08.468Z,5.50
2018-06-18T07:58:38.254Z,5.50
2018-06-18T08:01:07.865Z,5.72
2018-06-18T08:03:37.553Z,4.85
2018-06-18T08:06:07.105Z,5.85
2018-06-18T08:08:36.847Z,4.78
2018-06-18T08:11:06.620Z,5.10
2018-06-18T08:13:36.851Z,4.80
2018-06-18T08:16:07.001Z,4.33
2018-06-18T08:18:36.575Z,5.17
2018-06-18T08:21:06.256Z,4.05
2018-06-18T08:23:35.986Z,3.95
2018-06-18T08:26:05.603Z,5.08
2018-06-18T08:28:35.402Z,4.47
2018-06-18T08:31:04.927Z,4.75
2018-06-18T08:33:34.459Z,4.45
2018-06-18T08:36:04.888Z,4.22
2018-06-18T08:38:34.505Z,4.50
2018-06-18T08:41:04.225Z,4.03
2018-06-18T08:43:33.755Z,4.30
2018-06-18T08:46:03.287Z,4.10
2018-06-18T08:48:37.846Z,4.58
2018-06-18T08:51:13.908Z,4.33
2018-06-18T08:53:48.479Z,4.30
2018-06-18T08:56:23.298Z,4.00
2018-06-18T08:58:57.847Z,4.45
2018-06-18T09:01:32.350Z,4.00
2018-06-18T09:04:06.861Z,3.83
2018-06-18T09:06:36.449Z,3.77
2018-06-18T09:09:08.761Z,3.67
2018-06-18T09:11:38.869Z,4.22
2018-06-18T09:14:09.333Z,4.15
2018-06-18T09:16:38.915Z,4.00
2018-06-18T09:19:08.754Z,4.00
2018-06-18T09:21:38.290Z,3.58
2018-06-18T09:24:07.954Z,3.60
2018-06-18T09:26:37.925Z,3.70
2018-06-18T09:29:07.483Z,3.20
2018-06-18T09:31:40.250Z,3.70
2018-06-18T09:34:09.850Z,3.55
2018-06-18T09:36:39.515Z,3.30
2018-06-18T09:39:09.306Z,3.62
2018-06-18T09:41:38.762Z,3.40
2018-06-18T09:44:08.402Z,3.27
2018-06-18T09:46:38.060Z,3.35
2018-06-18T09:49:12.831Z,3.45
2018-06-18T09:51:47.488Z,3.27
2018-06-18T09:54:21.963Z,2.98
2018-06-18T09:56:56.647Z,2.87
2018-06-18T09:59:39.762Z,2.87
2018-06-18T10:02:10.686Z,3.05
2018-06-18T10:04:40.280Z,3.05
2018-06-18T10:07:09.874Z,2.70
2018-06-18T10:09:39.623Z,3.30
2018-06-18T10:12:09.203Z,2.50
2018-06-18T10:14:38.767Z,2.67
2018-06-18T10:17:08.412Z,2.70
2018-06-18T10:19:38.056Z,2.80
2018-06-18T10:22:07.566Z,2.50
2018-06-18T10:24:37.175Z,2.80
2018-06-18T10:27:06.706Z,2.80
2018-06-18T10:29:36.281Z,2.90
2018-06-18T10:32:08.349Z,3.05
2018-06-18T10:34:43.040Z,3.30
2018-06-18T10:37:17.565Z,3.25
2018-06-18T10:41:53.424Z,2.72
2018-06-18T10:44:23.106Z,2.80
2018-06-18T10:46:52.784Z,2.33
2018-06-18T10:49:22.584Z,2.50
2018-06-18T10:51:55.755Z,2.30
2018-06-18T10:54:25.450Z,2.42
2018-06-18T10:56:55.079Z,2.55
2018-06-18T10:59:24.603Z,2.77
2018-06-18T11:01:54.228Z,2.85
2018-06-18T11:04:29.844Z,2.65
2018-06-18T11:06:59.862Z,2.70
2018-06-18T11:09:29.843Z,2.67
2018-06-18T11:11:59.587Z,2.83
2018-06-18T11:14:29.117Z,2.58
2018-06-18T11:19:09.941Z,2.60
2018-06-18T11:21:44.710Z,2.45
2018-06-18T11:26:26.356Z,2.47
2018-06-18T11:28:57.187Z,2.47
2018-06-18T11:31:26.810Z,2.70
2018-06-18T11:33:56.478Z,2.37
2018-06-18T11:36:26.225Z,2.30
2018-06-18T11:38:55.984Z,2.20
2018-06-18T11:41:25.798Z,2.25
2018-06-18T11:43:55.465Z,2.30
2018-06-18T11:46:25.095Z,2.20
2018-06-18T11:48:54.665Z,2.40
2018-06-18T11:51:24.359Z,2.37
2018-06-18T11:53:53.887Z,2.40
2018-06-18T11:56:23.327Z,2.37
2018-06-18T11:58:57.896Z,2.10
2018-06-18T12:01:32.452Z,2.37
2018-06-18T12:04:06.999Z,2.47
2018-06-18T12:06:41.668Z,2.40
2018-06-18T12:09:16.336Z,2.50
2018-06-18T12:11:46.682Z,2.52
2018-06-18T12:14:17.102Z,2.45
2018-06-18T12:16:46.991Z,2.30
2018-06-18T12:19:21.006Z,2.70
2018-06-18T12:21:51.499Z,2.42
2018-06-18T12:24:21.407Z,2.30
2018-06-18T12:26:51.196Z,2.50
2018-06-18T12:29:21.466Z,2.25
2018-06-18T12:31:51.435Z,2.10
2018-06-18T12:34:21.953Z,2.50
2018-06-18T12:36:51.906Z,2.40
2018-06-18T12:39:22.123Z,2.20
2018-06-18T12:42:04.296Z,2.17
2018-06-18T12:44:40.625Z,2.40
2018-06-18T12:47:15.224Z,2.10
2018-06-18T12:49:49.907Z,2.30
2018-06-18T12:52:24.450Z,2.17
2018-06-18T12:54:59.383Z,2.37
2018-06-18T12:57:28.996Z,2.20
2018-06-18T12:59:59.119Z,2.10
2018-06-18T13:02:35.278Z,2.10
2018-06-18T13:05:05.097Z,2.37
2018-06-18T13:07:35.767Z,2.20
2018-06-18T13:10:05.876Z,2.12
2018-06-18T13:12:36.118Z,2.30
2018-06-18T13:15:06.134Z,2.30
2018-06-18T13:17:36.053Z,2.40
2018-06-18T13:20:06.233Z,2.00
2018-06-18T13:22:36.177Z,2.27
2018-06-18T13:25:05.763Z,2.15
2018-06-18T13:27:40.246Z,2.22
2018-06-18T13:30:10.050Z,2.27
2018-06-18T13:32:39.780Z,1.90
2018-06-18T13:35:09.325Z,2.37
2018-06-18T13:37:43.824Z,1.77
2018-06-18T13:40:19.392Z,2.10
2018-06-18T13:42:58.901Z,1.87
2018-06-18T13:45:35.119Z,2.37
2018-06-18T13:48:10.091Z,1.87
2018-06-18T13:50:40.394Z,2.08
2018-06-18T13:53:10.593Z,2.20
2018-06-18T13:55:41.422Z,2.20
2018-06-18T13:58:11.346Z,2.00
2018-06-18T14:00:41.637Z,2.08
2018-06-18T14:03:12.579Z,2.10
2018-06-18T14:05:42.548Z,1.90
2018-06-18T14:08:13.309Z,1.75
2018-06-18T14:10:42.994Z,2.10
2018-06-18T14:13:13.135Z,2.20
2018-06-18T14:15:43.036Z,2.10
2018-06-18T14:18:12.966Z,2.22
2018-06-18T14:20:42.741Z,1.85
2018-06-18T14:23:12.786Z,1.77
2018-06-18T14:25:42.442Z,1.65
2018-06-18T14:28:12.299Z,2.25
2018-06-18T14:30:47.363Z,2.30
2018-06-18T14:33:24.554Z,2.00
2018-06-18T14:35:59.421Z,2.33
2018-06-18T14:38:34.169Z,2.45
2018-06-18T14:41:05.240Z,2.33
2018-06-18T14:43:34.970Z,2.30
2018-06-18T14:46:05.621Z,2.60
2018-06-18T14:48:35.618Z,2.00
2018-06-18T14:51:05.265Z,1.70
2018-06-18T14:53:35.132Z,2.00
2018-06-18T14:56:13.055Z,2.05
2018-06-18T14:58:45.346Z,1.90
2018-06-18T15:01:15.060Z,2.05
2018-06-18T15:03:53.516Z,2.12
2018-06-18T15:06:23.225Z,2.20
2018-06-18T15:08:53.030Z,2.33
2018-06-18T15:11:25.280Z,2.22
2018-06-18T15:14:05.470Z,1.92
2018-06-18T15:16:35.353Z,2.10
2018-06-18T15:19:16.389Z,2.40
2018-06-18T15:21:54.238Z,2.20
2018-06-18T15:24:32.867Z,2.15
2018-06-18T15:27:02.775Z,2.30
2018-06-18T15:29:32.775Z,2.40
2018-06-18T15:32:03.192Z,2.12
2018-06-18T15:34:34.208Z,2.60
2018-06-18T15:37:04.499Z,2.22
2018-06-18T15:39:35.318Z,2.10
2018-06-18T15:42:06.129Z,2.22
2018-06-18T15:47:26.119Z,2.50
2018-06-18T15:49:58.493Z,2.12
2018-06-18T15:52:28.569Z,2.30
2018-06-18T15:54:59.987Z,2.00
2018-06-18T15:57:30.599Z,2.30
2018-06-18T16:00:09.677Z,2.33
2018-06-18T16:02:40.222Z,2.50
2018-06-18T16:05:10.268Z,2.25
2018-06-18T16:07:44.649Z,2.47
2018-06-18T16:10:14.930Z,2.15
2018-06-18T16:12:52.612Z,2.22
2018-06-18T16:15:22.716Z,2.40
2018-06-18T16:17:59.344Z,2.33
2018-06-18T16:20:31.050Z,2.42
2018-06-18T16:23:03.319Z,2.10
2018-06-18T16:25:35.612Z,2.08
2018-06-18T16:28:06.720Z,2.45
2018-06-18T16:30:36.351Z,3.10
2018-06-18T16:33:07.096Z,2.17
2018-06-18T16:35:36.966Z,2.37
2018-06-18T16:38:06.962Z,2.30
2018-06-18T16:40:40.218Z,2.35
2018-06-18T16:43:11.224Z,2.00
2018-06-18T16:45:42.022Z,2.27
2018-06-18T16:48:12.896Z,3.10
2018-06-18T16:50:42.748Z,2.25
2018-06-18T16:53:12.384Z,2.25
2018-06-18T16:55:42.235Z,2.25
2018-06-18T16:58:11.978Z,2.50
2018-06-18T17:00:41.578Z,2.22
2018-06-18T17:03:16.176Z,1.90
2018-06-18T17:05:46.076Z,2.12
2018-06-18T17:08:17.926Z,2.58
2018-06-18T17:10:53.437Z,2.40
2018-06-18T17:13:25.833Z,2.77
2018-06-18T17:15:56.162Z,2.30
2018-06-18T17:18:28.269Z,2.33
2018-06-18T17:20:58.981Z,3.00
2018-06-18T17:23:29.955Z,2.75
2018-06-18T17:25:59.469Z,2.70
2018-06-18T17:28:29.276Z,2.85
2018-06-18T17:30:58.886Z,2.92
2018-06-18T17:33:28.630Z,2.90
2018-06-18T17:35:58.682Z,2.92
2018-06-18T17:38:30.567Z,2.52
2018-06-18T17:41:00.201Z,3.20
2018-06-18T17:43:30.434Z,2.95
2018-06-18T17:46:00.260Z,3.00
2018-06-18T17:48:34.339Z,2.60
2018-06-18T17:51:04.097Z,2.70
2018-06-18T17:53:33.671Z,2.65
2018-06-18T17:56:03.660Z,2.40
2018-06-18T17:58:33.611Z,2.95
2018-06-18T18:01:03.412Z,2.80
2018-06-18T18:03:33.152Z,2.92
2018-06-18T18:06:05.088Z,3.12
2018-06-18T18:08:37.011Z,3.17
2018-06-18T18:11:06.559Z,3.20
2018-06-18T18:13:37.627Z,4.40
2018-06-18T18:16:07.853Z,3.30
2018-06-18T18:18:37.555Z,3.35
2018-06-18T18:21:10.520Z,3.42
2018-06-18T18:23:47.064Z,3.67
2018-06-18T18:26:17.315Z,4.00
2018-06-18T18:28:47.021Z,3.33
2018-06-18T18:31:16.874Z,3.42
2018-06-18T18:33:51.927Z,3.10
2018-06-18T18:37:02.910Z,3.55
2018-06-18T20:23:24.381Z,2.95
2018-06-18T20:29:46.952Z,3.22
2018-06-18T20:32:40.754Z,3.30
2018-06-18T20:35:30.902Z,3.47
2018-06-18T20:38:00.906Z,3.52
2018-06-18T20:40:30.579Z,3.02
2018-06-18T20:43:00.086Z,3.55
2018-06-18T20:45:29.686Z,3.30
2018-06-18T20:47:58.922Z,3.33
2018-06-18T20:50:28.485Z,3.20
2018-06-18T20:52:58.113Z,3.40
2018-06-18T20:55:27.541Z,3.42
2018-06-18T20:57:56.831Z,3.35
2018-06-18T21:00:26.135Z,3.95
2018-06-18T21:02:55.475Z,4.10
2018-06-18T21:05:24.923Z,4.30
2018-06-18T21:07:54.177Z,3.33
2018-06-18T21:10:23.622Z,3.30
2018-06-18T21:12:53.018Z,3.25
2018-06-18T21:15:22.423Z,3.67
2018-06-18T21:17:51.758Z,3.75
2018-06-18T21:20:20.990Z,3.85
2018-06-18T21:22:51.117Z,3.60
2018-06-18T21:25:20.510Z,4.10
2018-06-18T21:27:50.415Z,3.40
2018-06-18T21:30:20.051Z,3.15
2018-06-18T21:32:49.440Z,3.00
2018-06-18T21:35:18.831Z,2.92
2018-06-18T21:37:48.266Z,3.20
2018-06-18T21:40:17.583Z,3.47
2018-06-18T21:42:47.183Z,3.20
2018-06-18T21:45:19.929Z,3.30
2018-06-18T21:47:49.665Z,2.90
2018-06-18T21:50:19.339Z,3.12
2018-06-18T21:52:49.209Z,3.40
2018-06-18T21:55:18.590Z,2.87
2018-06-18T21:57:48.246Z,3.20
2018-06-18T22:00:23.135Z,3.17
2018-06-18T22:02:52.966Z,3.27
2018-06-18T22:05:22.506Z,3.10
2018-06-18T22:07:51.863Z,3.00
2018-06-18T22:10:21.347Z,3.33
2018-06-18T22:12:50.762Z,2.98
2018-06-18T22:15:20.032Z,3.80
2018-06-18T22:17:49.354Z,3.00
2018-06-18T22:20:18.709Z,3.33
2018-06-18T22:22:48.050Z,3.40
2018-06-18T22:25:17.281Z,3.00
2018-06-18T22:27:46.489Z,3.00
2018-06-18T22:30:15.704Z,3.37
2018-06-18T22:32:44.968Z,2.85
2018-06-18T22:35:14.230Z,2.70
2018-06-18T22:37:43.503Z,2.95
2018-06-18T22:40:12.858Z,3.58
2018-06-18T22:42:42.523Z,2.83
2018-06-18T22:45:13.496Z,3.15
2018-06-18T22:47:43.543Z,2.95
2018-06-18T22:50:12.827Z,3.00
2018-06-18T22:52:42.068Z,3.10
2018-06-18T22:55:11.525Z,3.00
2018-06-18T22:57:40.842Z,3.08
2018-06-18T23:00:11.130Z,3.52
2018-06-18T23:02:40.352Z,3.20
2018-06-18T23:05:09.654Z,3.22
2018-06-18T23:07:38.976Z,3.15
2018-06-18T23:10:08.309Z,3.08
2018-06-18T23:12:40.409Z,2.98
2018-06-18T23:15:10.942Z,3.33
2018-06-18T23:17:40.985Z,3.37
2018-06-18T23:20:10.722Z,3.62
2018-06-18T23:22:40.614Z,4.00
2018-06-18T23:25:10.022Z,3.45
2018-06-18T23:27:39.254Z,3.37
2018-06-18T23:30:08.774Z,3.87
2018-06-18T23:32:38.022Z,3.12
2018-06-18T23:35:07.324Z,3.60
2018-06-18T23:37:36.490Z,3.50
2018-06-18T23:40:05.668Z,3.22
2018-06-18T23:42:34.936Z,3.12
2018-06-18T23:45:04.250Z,3.30
2018-06-18T23:47:33.516Z,3.58
2018-06-18T23:50:02.750Z,3.20
2018-06-18T23:52:32.327Z,3.12
2018-06-18T23:55:01.607Z,3.50
2018-06-18T23:57:30.815Z,3.08
